Terminal Aerodrome Forecast
Issued by NWS

Home | Current Version | Previous Version | Text Only | Print | Product List | Glossary On
Versions: 1 2 3 4 5 6 7 8 9 10 11 12 13 14 15 16 17 18 19
168
FTUS46 KMTR 262337
TAFMRY
TAF
KMRY 262337Z 2700/2724 29008KT P6SM SKC
     FM270200 26006KT P6SM FEW015
      TEMPO 2703/2705 BKN010
     FM270500 26005KT P6SM OVC008
     FM271800 29006KT P6SM FEW008
     FM272100 29009KT P6SM SKC=

USA.gov is the U.S. government's official web portal to all federal, state and local government web resources and services.